Bells School, Mississippi
Current Conditions -  °F | °C
As of 2:55 AM on Wednesday 26 Nov 2014 (Local Time) from KSTF Reporting Station
NA  
Wind Chill: 28°   Ceiling: NA
Heat Index: 28°   Visibility: NA
Dew Point: 27°   Wind: 0mph
Humidity: 93%   Direction: NA
Pressure: 30.17"   Gusts: NA
Location:  33.4256°N, 88.8438°W
Report Text: KSTF 260855Z AUTO 00000KT M02/M03 A3017 RMK AO2 PWINO
Loading
Personal Weather Stations






























Interactive Weather Map New forecast layout! Learn more

10-Day Weather Forecast

Advertisements
Track Severe Weather on mobile